Wetterdaten: Woche 20.09.10 - 26.09.10 (KW38)
Datum Zeit Temperatur Luftfeuchte Luftdruck Niederschlag Windrichtung Sonnenschein Solar Wind
20.09.2010 00:00 6,6 C 95 % 1018,6 hPa 0,0 l/m N 0,00 h 0 W/m 0,0 km/h (0 Bft)
20.09.2010 01:00 6,1 C 96 % 1018,5 hPa 0,0 l/m N 0,00 h 0 W/m 0,0 km/h (0 Bft)
20.09.2010 02:00 5,8 C 96 % 1018,4 hPa 0,0 l/m N 0,00 h 0 W/m 0,0 km/h (0 Bft)
20.09.2010 03:00 5,3 C 96 % 1018,2 hPa 0,0 l/m N 0,00 h 0 W/m 0,0 km/h (0 Bft)
20.09.2010 04:00 4,9 C 96 % 1018,3 hPa 0,0 l/m N 0,00 h 0 W/m 0,0 km/h (0 Bft)
20.09.2010 05:00 4,6 C 96 % 1018,2 hPa 0,0 l/m N 0,00 h 0 W/m 0,1 km/h (0 Bft)
20.09.2010 06:00 4,5 C 96 % 1018,2 hPa 0,0 l/m N 0,00 h 0 W/m 0,8 km/h (0 Bft)
20.09.2010 07:00 4,4 C 97 % 1018,6 hPa 0,0 l/m N 0,08 h 19 W/m 0,3 km/h (0 Bft)
20.09.2010 08:00 6,2 C 96 % 1018,9 hPa 0,0 l/m N 0,25 h 95 W/m 0,1 km/h (0 Bft)
20.09.2010 09:00 9,6 C 88 % 1018,9 hPa 0,0 l/m N 1,00 h 346 W/m 0,0 km/h (0 Bft)
20.09.2010 10:00 12,5 C 79 % 1019,0 hPa 0,0 l/m S-SW 1,00 h 480 W/m 4,8 km/h (1 Bft)
20.09.2010 11:00 14,7 C 72 % 1019,1 hPa 0,0 l/m SW 1,00 h 590 W/m 8,4 km/h (2 Bft)
20.09.2010 12:00 16,2 C 67 % 1018,9 hPa 0,0 l/m SW 1,00 h 654 W/m 6,0 km/h (2 Bft)
20.09.2010 13:00 17,6 C 64 % 1018,2 hPa 0,0 l/m S-SW 1,00 h 655 W/m 5,6 km/h (1 Bft)
20.09.2010 14:00 18,5 C 59 % 1017,4 hPa 0,0 l/m SW 1,00 h 602 W/m 7,8 km/h (2 Bft)
20.09.2010 15:00 19,1 C 54 % 1016,9 hPa 0,0 l/m S-SO 1,00 h 528 W/m 5,3 km/h (1 Bft)
20.09.2010 16:00 19,1 C 52 % 1016,5 hPa 0,0 l/m N 1,00 h 398 W/m 2,1 km/h (1 Bft)
20.09.2010 17:00 18,9 C 54 % 1016,4 hPa 0,0 l/m N 0,67 h 199 W/m 1,1 km/h (0 Bft)
20.09.2010 18:00 16,7 C 71 % 1016,3 hPa 0,0 l/m N 0,00 h 29 W/m 0,0 km/h (0 Bft)
20.09.2010 19:00 13,8 C 84 % 1016,5 hPa 0,0 l/m N 0,00 h 9 W/m 0,0 km/h (0 Bft)
20.09.2010 20:00 11,9 C 90 % 1017,0 hPa 0,0 l/m N 0,00 h 0 W/m 0,0 km/h (0 Bft)
20.09.2010 21:00 10,8 C 93 % 1017,5 hPa 0,0 l/m N 0,00 h 0 W/m 0,0 km/h (0 Bft)
20.09.2010 22:00 10,0 C 94 % 1017,9 hPa 0,0 l/m N 0,00 h 0 W/m 0,0 km/h (0 Bft)
20.09.2010 23:00 9,2 C 95 % 1018,2 hPa 0,0 l/m N 0,00 h 0 W/m 0,0 km/h (0 Bft)
21.09.2010 00:00 8,5 C 96 % 1018,3 hPa 0,0 l/m N 0,00 h 0 W/m 0,0 km/h (0 Bft)
21.09.2010 01:00 7,8 C 96 % 1018,2 hPa 0,0 l/m N 0,00 h 0 W/m 0,0 km/h (0 Bft)
21.09.2010 02:00 7,4 C 97 % 1018,3 hPa 0,0 l/m N 0,00 h 0 W/m 0,0 km/h (0 Bft)
21.09.2010 03:00 6,9 C 97 % 1018,5 hPa 0,0 l/m N 0,00 h 0 W/m 0,0 km/h (0 Bft)
21.09.2010 04:00 6,6 C 97 % 1018,6 hPa 0,0 l/m N 0,00 h 0 W/m 0,1 km/h (0 Bft)
21.09.2010 05:00 6,1 C 96 % 1018,8 hPa 0,0 l/m N 0,00 h 0 W/m 0,0 km/h (0 Bft)
21.09.2010 06:00 6,2 C 97 % 1019,0 hPa 0,0 l/m N 0,00 h 0 W/m 0,3 km/h (0 Bft)
21.09.2010 07:00 6,2 C 97 % 1019,2 hPa 0,0 l/m N 0,00 h 18 W/m 0,1 km/h (0 Bft)
21.09.2010 08:00 8,3 C 96 % 1019,5 hPa 0,0 l/m N 0,25 h 88 W/m 0,0 km/h (0 Bft)
21.09.2010 09:00 11,4 C 89 % 1019,6 hPa 0,0 l/m N 1,00 h 336 W/m 0,0 km/h (0 Bft)
21.09.2010 10:00 14,1 C 79 % 1019,8 hPa 0,0 l/m N 1,00 h 487 W/m 0,1 km/h (0 Bft)
21.09.2010 11:00 16,7 C 69 % 1019,6 hPa 0,0 l/m N 1,00 h 596 W/m 0,5 km/h (0 Bft)
21.09.2010 12:00 18,7 C 63 % 1019,3 hPa 0,0 l/m N 1,00 h 655 W/m 1,1 km/h (0 Bft)
21.09.2010 13:00 20,4 C 56 % 1018,9 hPa 0,0 l/m N-NO 1,00 h 657 W/m 7,0 km/h (2 Bft)
21.09.2010 14:00 21,2 C 54 % 1018,6 hPa 0,0 l/m N-NO 1,00 h 604 W/m 9,5 km/h (2 Bft)
21.09.2010 15:00 21,5 C 53 % 1018,2 hPa 0,0 l/m NO 1,00 h 515 W/m 11,8 km/h (2 Bft)
21.09.2010 16:00 21,4 C 52 % 1018,1 hPa 0,0 l/m NO 1,00 h 381 W/m 12,9 km/h (3 Bft)
21.09.2010 17:00 21,0 C 52 % 1018,2 hPa 0,0 l/m O-NO 0,50 h 153 W/m 9,8 km/h (2 Bft)
21.09.2010 18:00 19,8 C 57 % 1018,4 hPa 0,0 l/m O-NO 0,00 h 27 W/m 8,3 km/h (2 Bft)
21.09.2010 19:00 15,7 C 77 % 1018,8 hPa 0,0 l/m N 0,00 h 8 W/m 0,8 km/h (0 Bft)
21.09.2010 20:00 13,6 C 85 % 1019,1 hPa 0,0 l/m N 0,00 h 0 W/m 3,3 km/h (1 Bft)
21.09.2010 21:00 12,9 C 88 % 1019,5 hPa 0,0 l/m N 0,00 h 0 W/m 2,7 km/h (1 Bft)
21.09.2010 22:00 12,4 C 90 % 1019,7 hPa 0,0 l/m N 0,00 h 0 W/m 2,7 km/h (1 Bft)
21.09.2010 23:00 11,8 C 92 % 1019,8 hPa 0,0 l/m N-NW 0,00 h 0 W/m 3,9 km/h (1 Bft)
22.09.2010 00:00 11,3 C 92 % 1019,8 hPa 0,0 l/m N-NW 0,00 h 0 W/m 2,5 km/h (1 Bft)
22.09.2010 01:00 11,0 C 93 % 1019,9 hPa 0,0 l/m N-NW 0,00 h 0 W/m 4,4 km/h (1 Bft)
22.09.2010 02:00 10,3 C 94 % 1019,9 hPa 0,0 l/m N-NW 0,00 h 0 W/m 3,6 km/h (1 Bft)
22.09.2010 03:00 9,6 C 95 % 1020,0 hPa 0,0 l/m N-NW 0,00 h 0 W/m 2,7 km/h (1 Bft)
22.09.2010 04:00 9,2 C 96 % 1019,7 hPa 0,0 l/m N-NW 0,00 h 0 W/m 2,9 km/h (1 Bft)
22.09.2010 05:00 9,1 C 96 % 1019,8 hPa 0,0 l/m N 0,00 h 0 W/m 3,2 km/h (1 Bft)
22.09.2010 06:00 8,5 C 96 % 1019,7 hPa 0,0 l/m N 0,00 h 0 W/m 3,3 km/h (1 Bft)
22.09.2010 07:00 8,2 C 97 % 1019,9 hPa 0,0 l/m N 0,08 h 17 W/m 3,7 km/h (1 Bft)
22.09.2010 08:00 9,5 C 95 % 1020,3 hPa 0,0 l/m N 0,17 h 84 W/m 1,5 km/h (1 Bft)
22.09.2010 09:00 11,7 C 88 % 1020,3 hPa 0,0 l/m NO 0,92 h 278 W/m 3,5 km/h (1 Bft)
22.09.2010 10:00 13,8 C 83 % 1020,5 hPa 0,0 l/m N 1,00 h 440 W/m 3,6 km/h (1 Bft)
22.09.2010 11:00 16,6 C 75 % 1020,3 hPa 0,0 l/m N-NW 1,00 h 587 W/m 3,1 km/h (1 Bft)
22.09.2010 12:00 18,8 C 65 % 1020,0 hPa 0,0 l/m O 1,00 h 635 W/m 5,1 km/h (1 Bft)
22.09.2010 13:00 20,1 C 60 % 1019,3 hPa 0,0 l/m N-NO 1,00 h 639 W/m 6,7 km/h (2 Bft)
22.09.2010 14:00 21,1 C 56 % 1018,8 hPa 0,0 l/m O-SO 1,00 h 599 W/m 9,4 km/h (2 Bft)
22.09.2010 15:00 21,5 C 52 % 1018,3 hPa 0,0 l/m O-SO 1,00 h 505 W/m 11,8 km/h (2 Bft)
22.09.2010 16:00 21,6 C 53 % 1017,8 hPa 0,0 l/m O-SO 1,00 h 384 W/m 12,8 km/h (3 Bft)
22.09.2010 17:00 21,2 C 56 % 1017,6 hPa 0,0 l/m O 0,50 h 158 W/m 12,0 km/h (2 Bft)
22.09.2010 18:00 20,0 C 63 % 1017,5 hPa 0,0 l/m O-SO 0,00 h 27 W/m 7,8 km/h (2 Bft)
22.09.2010 19:00 16,5 C 80 % 1017,3 hPa 0,0 l/m N 0,00 h 8 W/m 0,7 km/h (0 Bft)
22.09.2010 20:00 14,4 C 88 % 1017,4 hPa 0,0 l/m N 0,00 h 0 W/m 1,5 km/h (1 Bft)
22.09.2010 21:00 13,5 C 91 % 1017,4 hPa 0,0 l/m N 0,00 h 0 W/m 2,0 km/h (1 Bft)
22.09.2010 22:00 12,9 C 92 % 1017,2 hPa 0,0 l/m N 0,00 h 0 W/m 1,6 km/h (1 Bft)
22.09.2010 23:00 12,2 C 94 % 1017,1 hPa 0,0 l/m N 0,00 h 0 W/m 1,9 km/h (1 Bft)
23.09.2010 00:00 11,8 C 95 % 1017,1 hPa 0,0 l/m N 0,00 h 0 W/m 1,5 km/h (1 Bft)
23.09.2010 01:00 10,5 C 95 % 1017,1 hPa 0,0 l/m N 0,00 h 0 W/m 0,0 km/h (0 Bft)
23.09.2010 02:00 9,8 C 96 % 1017,3 hPa 0,0 l/m N 0,00 h 0 W/m 0,0 km/h (0 Bft)
23.09.2010 03:00 9,2 C 96 % 1017,2 hPa 0,0 l/m N 0,00 h 0 W/m 0,0 km/h (0 Bft)
23.09.2010 04:00 8,6 C 97 % 1017,0 hPa 0,0 l/m N 0,00 h 0 W/m 0,0 km/h (0 Bft)
23.09.2010 05:00 7,9 C 97 % 1016,7 hPa 0,0 l/m N 0,00 h 0 W/m 0,0 km/h (0 Bft)
23.09.2010 06:00 7,6 C 98 % 1016,5 hPa 0,0 l/m N 0,00 h 0 W/m 0,0 km/h (0 Bft)
23.09.2010 07:00 7,8 C 99 % 1016,4 hPa 0,0 l/m N 0,00 h 16 W/m 0,0 km/h (0 Bft)
23.09.2010 08:00 8,4 C 99 % 1016,4 hPa 0,0 l/m N 0,00 h 79 W/m 0,0 km/h (0 Bft)
23.09.2010 09:00 10,1 C 99 % 1016,1 hPa 0,0 l/m N 0,50 h 207 W/m 1,6 km/h (1 Bft)
23.09.2010 10:00 14,3 C 95 % 1015,7 hPa 0,0 l/m S 1,00 h 435 W/m 4,7 km/h (1 Bft)
23.09.2010 11:00 17,8 C 81 % 1014,9 hPa 0,0 l/m SW 1,00 h 556 W/m 10,6 km/h (2 Bft)
23.09.2010 12:00 19,8 C 76 % 1013,9 hPa 0,0 l/m S-SO 1,00 h 617 W/m 9,7 km/h (2 Bft)
23.09.2010 13:00 21,5 C 69 % 1013,1 hPa 0,0 l/m W-SW 1,00 h 624 W/m 11,9 km/h (2 Bft)
23.09.2010 14:00 22,7 C 58 % 1012,4 hPa 0,0 l/m SW 1,00 h 587 W/m 13,6 km/h (3 Bft)
23.09.2010 15:00 23,2 C 48 % 1011,9 hPa 0,0 l/m W 1,00 h 502 W/m 14,2 km/h (3 Bft)
23.09.2010 16:00 22,5 C 53 % 1011,4 hPa 0,0 l/m W-SW 0,67 h 259 W/m 8,6 km/h (2 Bft)
23.09.2010 17:00 21,5 C 59 % 1011,1 hPa 0,0 l/m W-SW 0,50 h 166 W/m 8,7 km/h (2 Bft)
23.09.2010 18:00 19,1 C 70 % 1010,7 hPa 0,0 l/m N 0,00 h 40 W/m 2,9 km/h (1 Bft)
23.09.2010 19:00 16,8 C 81 % 1010,3 hPa 0,0 l/m N 0,00 h 10 W/m 0,9 km/h (0 Bft)
23.09.2010 20:00 15,3 C 88 % 1010,1 hPa 0,0 l/m N 0,00 h 0 W/m 0,3 km/h (0 Bft)
23.09.2010 21:00 14,0 C 92 % 1009,8 hPa 0,0 l/m N 0,00 h 0 W/m 0,0 km/h (0 Bft)
23.09.2010 22:00 12,8 C 95 % 1009,4 hPa 0,0 l/m N 0,00 h 0 W/m 0,0 km/h (0 Bft)
23.09.2010 23:00 11,9 C 96 % 1009,1 hPa 0,0 l/m N 0,00 h 0 W/m 0,0 km/h (0 Bft)
24.09.2010 00:00 11,1 C 96 % 1008,8 hPa 0,0 l/m N 0,00 h 0 W/m 0,0 km/h (0 Bft)
24.09.2010 01:00 10,5 C 97 % 1008,4 hPa 0,0 l/m N 0,00 h 0 W/m 0,0 km/h (0 Bft)
24.09.2010 02:00 10,7 C 97 % 1008,1 hPa 0,0 l/m N 0,00 h 0 W/m 0,4 km/h (0 Bft)
24.09.2010 03:00 10,8 C 96 % 1007,4 hPa 0,0 l/m N 0,00 h 0 W/m 0,5 km/h (0 Bft)
24.09.2010 04:00 10,2 C 97 % 1006,6 hPa 0,0 l/m N 0,00 h 0 W/m 0,1 km/h (0 Bft)
24.09.2010 05:00 9,7 C 97 % 1005,9 hPa 0,0 l/m N 0,00 h 0 W/m 0,0 km/h (0 Bft)
24.09.2010 06:00 9,5 C 98 % 1005,3 hPa 0,0 l/m N 0,00 h 0 W/m 0,0 km/h (0 Bft)
24.09.2010 07:00 9,3 C 98 % 1004,8 hPa 0,0 l/m N 0,17 h 22 W/m 0,0 km/h (0 Bft)
24.09.2010 08:00 10,3 C 98 % 1004,4 hPa 0,0 l/m N 0,00 h 88 W/m 0,3 km/h (0 Bft)
24.09.2010 09:00 12,6 C 93 % 1003,7 hPa 0,0 l/m N 0,25 h 192 W/m 0,4 km/h (0 Bft)
24.09.2010 10:00 15,6 C 83 % 1003,1 hPa 0,0 l/m SW 0,83 h 369 W/m 2,3 km/h (1 Bft)
24.09.2010 11:00 18,6 C 66 % 1002,4 hPa 0,0 l/m SW 0,92 h 436 W/m 9,9 km/h (2 Bft)
24.09.2010 12:00 19,8 C 64 % 1001,6 hPa 0,0 l/m W-SW 0,75 h 417 W/m 7,4 km/h (2 Bft)
24.09.2010 13:00 20,4 C 61 % 1000,8 hPa 0,0 l/m W-NW 0,58 h 413 W/m 8,7 km/h (2 Bft)
24.09.2010 14:00 19,6 C 61 % 1000,5 hPa 0,0 l/m W-SW 0,17 h 295 W/m 15,4 km/h (3 Bft)
24.09.2010 15:00 18,6 C 64 % 1000,5 hPa 0,0 l/m W 0,00 h 211 W/m 15,2 km/h (3 Bft)
24.09.2010 16:00 16,9 C 67 % 1001,2 hPa 0,0 l/m W 0,00 h 81 W/m 26,7 km/h (4 Bft)
24.09.2010 17:00 14,2 C 82 % 1002,0 hPa 0,2 l/m W 0,00 h 46 W/m 20,4 km/h (4 Bft)
24.09.2010 18:00 12,7 C 91 % 1002,3 hPa 1,0 l/m W 0,00 h 11 W/m 10,5 km/h (2 Bft)
24.09.2010 19:00 12,0 C 94 % 1002,3 hPa 0,2 l/m W-SW 0,00 h 0 W/m 11,0 km/h (2 Bft)
24.09.2010 20:00 11,7 C 93 % 1003,0 hPa 0,0 l/m W-SW 0,00 h 0 W/m 14,4 km/h (3 Bft)
24.09.2010 21:00 11,4 C 92 % 1003,3 hPa 0,0 l/m SW 0,00 h 0 W/m 15,4 km/h (3 Bft)
24.09.2010 22:00 11,1 C 91 % 1003,7 hPa 0,0 l/m SW 0,00 h 0 W/m 21,6 km/h (4 Bft)
24.09.2010 23:00 10,6 C 91 % 1003,6 hPa 0,0 l/m W-SW 0,00 h 0 W/m 16,2 km/h (3 Bft)
25.09.2010 00:00 10,2 C 92 % 1003,1 hPa 0,0 l/m SW 0,00 h 0 W/m 10,8 km/h (2 Bft)
25.09.2010 01:00 9,9 C 95 % 1002,6 hPa 0,0 l/m SW 0,00 h 0 W/m 8,4 km/h (2 Bft)
25.09.2010 02:00 9,8 C 95 % 1002,1 hPa 0,0 l/m S-SW 0,00 h 0 W/m 5,2 km/h (1 Bft)
25.09.2010 03:00 9,8 C 95 % 1001,8 hPa 0,0 l/m S-SW 0,00 h 0 W/m 7,5 km/h (2 Bft)
25.09.2010 04:00 9,9 C 97 % 1001,2 hPa 0,2 l/m SW 0,00 h 0 W/m 8,6 km/h (2 Bft)
25.09.2010 05:00 9,7 C 97 % 1000,8 hPa 2,6 l/m SW 0,00 h 0 W/m 7,6 km/h (2 Bft)
25.09.2010 06:00 9,6 C 98 % 1000,4 hPa 3,4 l/m S-SW 0,00 h 0 W/m 4,3 km/h (1 Bft)
25.09.2010 07:00 9,7 C 98 % 999,9 hPa 1,6 l/m N 0,00 h 11 W/m 1,2 km/h (1 Bft)
25.09.2010 08:00 9,9 C 98 % 999,8 hPa 0,4 l/m N 0,00 h 17 W/m 2,3 km/h (1 Bft)
25.09.2010 09:00 10,1 C 98 % 1000,2 hPa 2,4 l/m N 0,00 h 38 W/m 0,3 km/h (0 Bft)
25.09.2010 10:00 10,4 C 98 % 1000,1 hPa 1,8 l/m NW 0,00 h 96 W/m 3,1 km/h (1 Bft)
25.09.2010 11:00 10,8 C 97 % 1000,3 hPa 1,4 l/m N-NW 0,00 h 70 W/m 7,1 km/h (2 Bft)
25.09.2010 12:00 10,8 C 97 % 1000,2 hPa 2,0 l/m NW 0,00 h 75 W/m 6,3 km/h (2 Bft)
25.09.2010 13:00 9,9 C 97 % 1000,8 hPa 2,8 l/m SW 0,00 h 77 W/m 14,5 km/h (3 Bft)
25.09.2010 14:00 9,4 C 97 % 1001,2 hPa 2,8 l/m SW 0,00 h 71 W/m 12,8 km/h (3 Bft)
25.09.2010 15:00 9,5 C 97 % 1001,5 hPa 3,4 l/m W-SW 0,00 h 41 W/m 14,9 km/h (3 Bft)
25.09.2010 16:00 9,9 C 98 % 1002,0 hPa 4,0 l/m W-SW 0,00 h 24 W/m 8,7 km/h (2 Bft)
25.09.2010 17:00 9,9 C 97 % 1002,8 hPa 3,4 l/m NW 0,00 h 17 W/m 12,3 km/h (3 Bft)
25.09.2010 18:00 9,3 C 96 % 1003,9 hPa 1,4 l/m N-NW 0,00 h 8 W/m 17,0 km/h (3 Bft)
25.09.2010 19:00 8,5 C 96 % 1005,0 hPa 1,0 l/m N-NW 0,00 h 0 W/m 12,5 km/h (3 Bft)
25.09.2010 20:00 8,0 C 96 % 1005,9 hPa 1,0 l/m N-NW 0,00 h 0 W/m 13,8 km/h (3 Bft)
25.09.2010 21:00 7,3 C 96 % 1006,8 hPa 0,8 l/m NW 0,00 h 0 W/m 13,8 km/h (3 Bft)
25.09.2010 22:00 6,9 C 95 % 1007,3 hPa 0,6 l/m N-NW 0,00 h 0 W/m 8,0 km/h (2 Bft)
25.09.2010 23:00 6,7 C 97 % 1007,7 hPa 0,0 l/m N 0,00 h 0 W/m 0,5 km/h (0 Bft)
26.09.2010 00:00 6,6 C 98 % 1007,7 hPa 0,0 l/m SW 0,00 h 0 W/m 3,2 km/h (1 Bft)
26.09.2010 01:00 6,9 C 97 % 1007,6 hPa 0,2 l/m SW 0,00 h 0 W/m 4,8 km/h (1 Bft)
26.09.2010 02:00 6,9 C 98 % 1007,7 hPa 0,0 l/m SW 0,00 h 0 W/m 3,9 km/h (1 Bft)
26.09.2010 03:00 6,9 C 98 % 1007,7 hPa 0,0 l/m SW 0,00 h 0 W/m 5,3 km/h (1 Bft)
26.09.2010 04:00 6,7 C 97 % 1007,6 hPa 0,0 l/m W 0,00 h 0 W/m 6,1 km/h (2 Bft)
26.09.2010 05:00 6,2 C 97 % 1007,8 hPa 0,0 l/m N 0,00 h 0 W/m 2,4 km/h (1 Bft)
26.09.2010 06:00 6,2 C 97 % 1007,9 hPa 0,0 l/m N 0,00 h 0 W/m 3,6 km/h (1 Bft)
26.09.2010 07:00 5,5 C 96 % 1007,9 hPa 0,0 l/m W 0,00 h 16 W/m 4,1 km/h (1 Bft)
26.09.2010 08:00 5,5 C 97 % 1008,4 hPa 0,0 l/m SW 0,08 h 75 W/m 1,3 km/h (1 Bft)
26.09.2010 09:00 7,2 C 94 % 1008,6 hPa 0,0 l/m SW 0,75 h 257 W/m 7,2 km/h (2 Bft)
26.09.2010 10:00 8,6 C 84 % 1008,5 hPa 0,0 l/m W 0,75 h 381 W/m 7,8 km/h (2 Bft)
26.09.2010 11:00 9,4 C 78 % 1008,5 hPa 0,0 l/m W 0,42 h 373 W/m 10,6 km/h (2 Bft)
26.09.2010 12:00 10,3 C 72 % 1008,5 hPa 0,0 l/m W 0,25 h 370 W/m 13,6 km/h (3 Bft)
26.09.2010 13:00 10,7 C 69 % 1008,3 hPa 0,0 l/m W-NW 0,08 h 289 W/m 10,7 km/h (2 Bft)
26.09.2010 14:00 10,8 C 68 % 1008,3 hPa 0,0 l/m SW 0,00 h 218 W/m 9,0 km/h (2 Bft)
26.09.2010 15:00 10,9 C 75 % 1008,3 hPa 0,0 l/m SW 0,08 h 205 W/m 10,5 km/h (2 Bft)
26.09.2010 16:00 11,2 C 76 % 1008,3 hPa 0,0 l/m S-SW 0,75 h 327 W/m 13,3 km/h (3 Bft)
26.09.2010 17:00 10,3 C 80 % 1008,4 hPa 0,0 l/m SW 0,25 h 151 W/m 11,6 km/h (2 Bft)
26.09.2010 18:00 10,0 C 83 % 1008,7 hPa 0,0 l/m SW 0,00 h 35 W/m 6,8 km/h (2 Bft)
26.09.2010 19:00 9,2 C 86 % 1009,3 hPa 0,0 l/m N 0,00 h 0 W/m 1,9 km/h (1 Bft)
26.09.2010 20:00 8,6 C 90 % 1009,9 hPa 0,0 l/m N 0,00 h 0 W/m 1,1 km/h (0 Bft)
26.09.2010 21:00 8,3 C 89 % 1010,3 hPa 0,0 l/m N-NW 0,00 h 0 W/m 4,4 km/h (1 Bft)
26.09.2010 22:00 7,8 C 90 % 1010,7 hPa 0,0 l/m N 0,00 h 0 W/m 1,7 km/h (1 Bft)
26.09.2010 23:00 7,4 C 93 % 1010,8 hPa 0,0 l/m N 0,00 h 0 W/m 0,1 km/h (0 Bft)
Min-Datum _ 20.09.10 23.09.10 25.09.10 - - - - 20.09.10
_ Min-Zeit 07:10 15:15 08:05 - - - - 00:00
Minimum _ 4,2 C 42 % 999,7 hPa - - - - 0,0 km/h (0 Bft)
Max-Datum _ 23.09.10 23.09.10 22.09.10 25.09.10 - 20.09.10 26.09.10 24.09.10
_ Max-Zeit 15:10 10:05 09:55 16:40 - 07:15 13:30 16:20
Maximum _ 23,3 C 100 % 1020,6 hPa 4,0 l/m - 0,08 h 830 W/m 33,8 km/h
W-NW (5 Bft)
Durchschnitt _ 12,0 C 86 % 1012,1 hPa #38,6 l/m SW #41:10 h 266 W/m 5,1 km/h (1 Bft)